sensor_id;sensor_type;location;lat;lon;timestamp;P1;durP1;ratioP1;P2;durP2;ratioP2
23617;SDS011;18207;32.078;34.818;2022-11-13T00:00:14;2.03;;;1.92;;
23617;SDS011;18207;32.078;34.818;2022-11-13T00:02:45;1.98;;;1.88;;
23617;SDS011;18207;32.078;34.818;2022-11-13T00:05:16;2.35;;;2.15;;
23617;SDS011;18207;32.078;34.818;2022-11-13T00:07:46;1.92;;;1.83;;
23617;SDS011;18207;32.078;34.818;2022-11-13T00:10:16;2.00;;;1.90;;
23617;SDS011;18207;32.078;34.818;2022-11-13T00:12:49;2.17;;;2.00;;
23617;SDS011;18207;32.078;34.818;2022-11-13T00:15:19;2.30;;;2.10;;
23617;SDS011;18207;32.078;34.818;2022-11-13T00:17:50;2.38;;;1.90;;
23617;SDS011;18207;32.078;34.818;2022-11-13T00:20:20;1.70;;;1.60;;
23617;SDS011;18207;32.078;34.818;2022-11-13T00:22:50;1.90;;;1.80;;
23617;SDS011;18207;32.078;34.818;2022-11-13T00:25:20;2.00;;;1.90;;
23617;SDS011;18207;32.078;34.818;2022-11-13T00:27:53;2.03;;;1.83;;
23617;SDS011;18207;32.078;34.818;2022-11-13T00:30:23;2.17;;;2.08;;
23617;SDS011;18207;32.078;34.818;2022-11-13T00:32:53;2.20;;;2.00;;
23617;SDS011;18207;32.078;34.818;2022-11-13T00:35:24;2.00;;;1.90;;
23617;SDS011;18207;32.078;34.818;2022-11-13T00:37:54;2.00;;;1.90;;
23617;SDS011;18207;32.078;34.818;2022-11-13T00:40:24;2.65;;;1.90;;
23617;SDS011;18207;32.078;34.818;2022-11-13T00:42:56;2.33;;;2.13;;
23617;SDS011;18207;32.078;34.818;2022-11-13T00:45:27;1.80;;;1.70;;
23617;SDS011;18207;32.078;34.818;2022-11-13T00:47:57;2.17;;;2.00;;
23617;SDS011;18207;32.078;34.818;2022-11-13T00:50:28;1.90;;;1.80;;
23617;SDS011;18207;32.078;34.818;2022-11-13T00:52:58;2.10;;;1.95;;
23617;SDS011;18207;32.078;34.818;2022-11-13T00:55:29;2.00;;;1.90;;
23617;SDS011;18207;32.078;34.818;2022-11-13T00:58:02;2.25;;;1.90;;
23617;SDS011;18207;32.078;34.818;2022-11-13T01:00:33;2.05;;;1.80;;
23617;SDS011;18207;32.078;34.818;2022-11-13T01:03:03;2.00;;;1.90;;
23617;SDS011;18207;32.078;34.818;2022-11-13T01:05:34;2.17;;;1.88;;
23617;SDS011;18207;32.078;34.818;2022-11-13T01:08:05;2.10;;;2.00;;
23617;SDS011;18207;32.078;34.818;2022-11-13T01:10:37;2.03;;;1.92;;
23617;SDS011;18207;32.078;34.818;2022-11-13T01:13:20;2.20;;;2.00;;
23617;SDS011;18207;32.078;34.818;2022-11-13T01:15:51;2.00;;;1.90;;
23617;SDS011;18207;32.078;34.818;2022-11-13T01:18:22;2.00;;;1.90;;
23617;SDS011;18207;32.078;34.818;2022-11-13T01:21:00;2.00;;;1.80;;
23617;SDS011;18207;32.078;34.818;2022-11-13T01:23:32;1.77;;;1.67;;
23617;SDS011;18207;32.078;34.818;2022-11-13T01:26:04;1.83;;;1.70;;
23617;SDS011;18207;32.078;34.818;2022-11-13T01:28:39;2.10;;;1.90;;
23617;SDS011;18207;32.078;34.818;2022-11-13T01:31:11;2.10;;;2.00;;
23617;SDS011;18207;32.078;34.818;2022-11-13T01:33:44;2.05;;;1.95;;
23617;SDS011;18207;32.078;34.818;2022-11-13T01:36:17;2.17;;;2.03;;
23617;SDS011;18207;32.078;34.818;2022-11-13T01:38:50;2.22;;;2.08;;
23617;SDS011;18207;32.078;34.818;2022-11-13T01:41:21;2.22;;;1.90;;
23617;SDS011;18207;32.078;34.818;2022-11-13T01:43:57;2.25;;;2.05;;
23617;SDS011;18207;32.078;34.818;2022-11-13T01:46:30;2.00;;;1.90;;
23617;SDS011;18207;32.078;34.818;2022-11-13T01:49:03;2.00;;;1.90;;
23617;SDS011;18207;32.078;34.818;2022-11-13T01:51:53;2.10;;;2.00;;
23617;SDS011;18207;32.078;34.818;2022-11-13T01:54:28;2.15;;;2.00;;
23617;SDS011;18207;32.078;34.818;2022-11-13T01:57:03;2.20;;;2.00;;
23617;SDS011;18207;32.078;34.818;2022-11-13T01:59:37;2.13;;;1.92;;
23617;SDS011;18207;32.078;34.818;2022-11-13T02:02:13;2.00;;;1.90;;
23617;SDS011;18207;32.078;34.818;2022-11-13T02:04:44;2.25;;;2.05;;
23617;SDS011;18207;32.078;34.818;2022-11-13T02:07:16;2.00;;;1.90;;
23617;SDS011;18207;32.078;34.818;2022-11-13T02:09:50;2.60;;;2.08;;
23617;SDS011;18207;32.078;34.818;2022-11-13T02:12:25;2.83;;;1.92;;
23617;SDS011;18207;32.078;34.818;2022-11-13T02:15:05;2.00;;;1.80;;
23617;SDS011;18207;32.078;34.818;2022-11-13T02:17:38;2.22;;;1.90;;
23617;SDS011;18207;32.078;34.818;2022-11-13T02:20:15;1.92;;;1.77;;
23617;SDS011;18207;32.078;34.818;2022-11-13T02:22:56;2.40;;;2.20;;
23617;SDS011;18207;32.078;34.818;2022-11-13T02:25:39;1.92;;;1.83;;
23617;SDS011;18207;32.078;34.818;2022-11-13T02:28:11;1.98;;;1.80;;
23617;SDS011;18207;32.078;34.818;2022-11-13T02:30:41;1.83;;;1.73;;
23617;SDS011;18207;32.078;34.818;2022-11-13T02:33:22;2.50;;;1.98;;
23617;SDS011;18207;32.078;34.818;2022-11-13T02:35:55;2.05;;;1.95;;
23617;SDS011;18207;32.078;34.818;2022-11-13T02:38:26;1.73;;;1.63;;
23617;SDS011;18207;32.078;34.818;2022-11-13T02:40:59;1.88;;;1.77;;
23617;SDS011;18207;32.078;34.818;2022-11-13T02:43:30;2.08;;;1.98;;
23617;SDS011;18207;32.078;34.818;2022-11-13T02:46:01;2.15;;;1.95;;
23617;SDS011;18207;32.078;34.818;2022-11-13T02:48:31;1.98;;;1.88;;
23617;SDS011;18207;32.078;34.818;2022-11-13T02:51:02;1.85;;;1.75;;
23617;SDS011;18207;32.078;34.818;2022-11-13T02:53:33;1.83;;;1.73;;
23617;SDS011;18207;32.078;34.818;2022-11-13T02:56:06;1.85;;;1.75;;
23617;SDS011;18207;32.078;34.818;2022-11-13T02:58:39;2.03;;;1.90;;
23617;SDS011;18207;32.078;34.818;2022-11-13T03:01:09;3.65;;;2.20;;
23617;SDS011;18207;32.078;34.818;2022-11-13T03:03:39;2.42;;;2.20;;
23617;SDS011;18207;32.078;34.818;2022-11-13T03:06:25;2.00;;;1.90;;
23617;SDS011;18207;32.078;34.818;2022-11-13T03:08:55;2.80;;;1.80;;
23617;SDS011;18207;32.078;34.818;2022-11-13T03:11:28;1.88;;;1.77;;
23617;SDS011;18207;32.078;34.818;2022-11-13T03:13:58;2.13;;;1.92;;
23617;SDS011;18207;32.078;34.818;2022-11-13T03:16:29;1.90;;;1.80;;
23617;SDS011;18207;32.078;34.818;2022-11-13T03:18:59;2.28;;;2.08;;
23617;SDS011;18207;32.078;34.818;2022-11-13T03:21:30;1.75;;;1.65;;
23617;SDS011;18207;32.078;34.818;2022-11-13T03:24:01;1.80;;;1.70;;
23617;SDS011;18207;32.078;34.818;2022-11-13T03:26:33;2.05;;;1.85;;
23617;SDS011;18207;32.078;34.818;2022-11-13T03:29:03;1.98;;;1.88;;
23617;SDS011;18207;32.078;34.818;2022-11-13T03:31:34;1.95;;;1.85;;
23617;SDS011;18207;32.078;34.818;2022-11-13T03:34:04;2.00;;;1.90;;
23617;SDS011;18207;32.078;34.818;2022-11-13T03:36:34;1.90;;;1.80;;
23617;SDS011;18207;32.078;34.818;2022-11-13T03:39:04;2.63;;;2.42;;
23617;SDS011;18207;32.078;34.818;2022-11-13T03:41:41;2.67;;;1.90;;
23617;SDS011;18207;32.078;34.818;2022-11-13T03:44:12;1.95;;;1.85;;
23617;SDS011;18207;32.078;34.818;2022-11-13T03:46:44;2.10;;;1.90;;
23617;SDS011;18207;32.078;34.818;2022-11-13T03:49:15;2.08;;;1.85;;
23617;SDS011;18207;32.078;34.818;2022-11-13T03:51:45;2.30;;;2.00;;
23617;SDS011;18207;32.078;34.818;2022-11-13T03:54:15;1.90;;;1.80;;
23617;SDS011;18207;32.078;34.818;2022-11-13T03:56:48;2.17;;;2.00;;
23617;SDS011;18207;32.078;34.818;2022-11-13T03:59:18;2.20;;;2.00;;
23617;SDS011;18207;32.078;34.818;2022-11-13T04:01:49;2.00;;;1.85;;
23617;SDS011;18207;32.078;34.818;2022-11-13T04:04:19;1.88;;;1.77;;
23617;SDS011;18207;32.078;34.818;2022-11-13T04:06:50;2.25;;;2.05;;
23617;SDS011;18207;32.078;34.818;2022-11-13T04:09:20;2.25;;;2.10;;
23617;SDS011;18207;32.078;34.818;2022-11-13T04:11:53;1.75;;;1.65;;
23617;SDS011;18207;32.078;34.818;2022-11-13T04:14:23;2.00;;;1.90;;
23617;SDS011;18207;32.078;34.818;2022-11-13T04:16:54;3.75;;;2.22;;
23617;SDS011;18207;32.078;34.818;2022-11-13T04:19:24;2.40;;;1.85;;
23617;SDS011;18207;32.078;34.818;2022-11-13T04:21:54;2.05;;;1.90;;
23617;SDS011;18207;32.078;34.818;2022-11-13T04:24:24;2.13;;;1.92;;
23617;SDS011;18207;32.078;34.818;2022-11-13T04:26:56;2.15;;;1.95;;
23617;SDS011;18207;32.078;34.818;2022-11-13T04:29:26;1.98;;;1.88;;
23617;SDS011;18207;32.078;34.818;2022-11-13T04:31:57;2.47;;;1.95;;
23617;SDS011;18207;32.078;34.818;2022-11-13T04:34:28;2.03;;;1.92;;
23617;SDS011;18207;32.078;34.818;2022-11-13T04:36:58;2.13;;;2.03;;
23617;SDS011;18207;32.078;34.818;2022-11-13T04:39:29;2.33;;;2.13;;
23617;SDS011;18207;32.078;34.818;2022-11-13T04:42:01;1.80;;;1.70;;
23617;SDS011;18207;32.078;34.818;2022-11-13T04:44:48;2.05;;;1.88;;
23617;SDS011;18207;32.078;34.818;2022-11-13T04:47:19;2.05;;;1.92;;
23617;SDS011;18207;32.078;34.818;2022-11-13T04:49:49;2.25;;;2.08;;
23617;SDS011;18207;32.078;34.818;2022-11-13T04:52:19;2.08;;;1.90;;
23617;SDS011;18207;32.078;34.818;2022-11-13T04:54:50;2.10;;;1.90;;
23617;SDS011;18207;32.078;34.818;2022-11-13T04:57:22;2.92;;;2.05;;
23617;SDS011;18207;32.078;34.818;2022-11-13T04:59:53;2.08;;;1.98;;
23617;SDS011;18207;32.078;34.818;2022-11-13T05:02:23;2.20;;;2.00;;
23617;SDS011;18207;32.078;34.818;2022-11-13T05:04:54;2.03;;;1.92;;
23617;SDS011;18207;32.078;34.818;2022-11-13T05:07:30;2.28;;;2.08;;
23617;SDS011;18207;32.078;34.818;2022-11-13T05:10:01;2.10;;;1.80;;
23617;SDS011;18207;32.078;34.818;2022-11-13T05:12:33;2.25;;;2.05;;
23617;SDS011;18207;32.078;34.818;2022-11-13T05:15:04;2.15;;;2.05;;
23617;SDS011;18207;32.078;34.818;2022-11-13T05:17:36;2.33;;;1.92;;
23617;SDS011;18207;32.078;34.818;2022-11-13T05:20:07;2.03;;;1.92;;
23617;SDS011;18207;32.078;34.818;2022-11-13T05:22:39;2.08;;;1.92;;
23617;SDS011;18207;32.078;34.818;2022-11-13T05:25:09;2.40;;;2.20;;
23617;SDS011;18207;32.078;34.818;2022-11-13T05:27:42;2.30;;;2.10;;
23617;SDS011;18207;32.078;34.818;2022-11-13T05:30:13;3.13;;;2.20;;
23617;SDS011;18207;32.078;34.818;2022-11-13T05:32:44;2.22;;;2.03;;
23617;SDS011;18207;32.078;34.818;2022-11-13T05:35:15;3.13;;;2.25;;
23617;SDS011;18207;32.078;34.818;2022-11-13T05:37:45;4.65;;;1.90;;
23617;SDS011;18207;32.078;34.818;2022-11-13T05:40:16;2.22;;;2.03;;
23617;SDS011;18207;32.078;34.818;2022-11-13T05:42:49;2.88;;;1.90;;
23617;SDS011;18207;32.078;34.818;2022-11-13T05:45:21;4.70;;;2.13;;
23617;SDS011;18207;32.078;34.818;2022-11-13T05:47:52;3.22;;;2.20;;
23617;SDS011;18207;32.078;34.818;2022-11-13T05:50:22;3.47;;;2.08;;
23617;SDS011;18207;32.078;34.818;2022-11-13T05:52:53;4.55;;;2.15;;
23617;SDS011;18207;32.078;34.818;2022-11-13T05:55:24;2.30;;;2.10;;
23617;SDS011;18207;32.078;34.818;2022-11-13T05:57:57;3.50;;;2.30;;
23617;SDS011;18207;32.078;34.818;2022-11-13T06:00:32;5.15;;;2.00;;
23617;SDS011;18207;32.078;34.818;2022-11-13T06:03:02;2.10;;;1.95;;
23617;SDS011;18207;32.078;34.818;2022-11-13T06:05:33;3.63;;;2.20;;
23617;SDS011;18207;32.078;34.818;2022-11-13T06:08:04;2.42;;;2.20;;
23617;SDS011;18207;32.078;34.818;2022-11-13T06:10:34;3.65;;;2.00;;
23617;SDS011;18207;32.078;34.818;2022-11-13T06:13:07;3.00;;;2.20;;
23617;SDS011;18207;32.078;34.818;2022-11-13T06:15:38;2.15;;;2.00;;
23617;SDS011;18207;32.078;34.818;2022-11-13T06:18:08;2.55;;;2.22;;
23617;SDS011;18207;32.078;34.818;2022-11-13T06:20:38;3.10;;;2.05;;
23617;SDS011;18207;32.078;34.818;2022-11-13T06:23:08;2.92;;;2.20;;
23617;SDS011;18207;32.078;34.818;2022-11-13T06:25:38;3.35;;;2.33;;
23617;SDS011;18207;32.078;34.818;2022-11-13T06:28:11;4.90;;;2.28;;
23617;SDS011;18207;32.078;34.818;2022-11-13T06:30:42;2.65;;;2.10;;
23617;SDS011;18207;32.078;34.818;2022-11-13T06:33:12;2.40;;;2.20;;
23617;SDS011;18207;32.078;34.818;2022-11-13T06:35:42;2.05;;;1.95;;
23617;SDS011;18207;32.078;34.818;2022-11-13T06:38:12;2.28;;;2.08;;
23617;SDS011;18207;32.078;34.818;2022-11-13T06:40:44;2.20;;;2.00;;
23617;SDS011;18207;32.078;34.818;2022-11-13T06:43:17;2.85;;;2.15;;
23617;SDS011;18207;32.078;34.818;2022-11-13T06:45:47;2.25;;;2.05;;
23617;SDS011;18207;32.078;34.818;2022-11-13T06:48:18;2.00;;;1.90;;
23617;SDS011;18207;32.078;34.818;2022-11-13T06:50:48;3.22;;;1.90;;
23617;SDS011;18207;32.078;34.818;2022-11-13T06:53:19;2.47;;;2.28;;
23617;SDS011;18207;32.078;34.818;2022-11-13T06:55:50;2.35;;;2.15;;
23617;SDS011;18207;32.078;34.818;2022-11-13T06:58:24;2.40;;;2.20;;
23617;SDS011;18207;32.078;34.818;2022-11-13T07:00:55;2.42;;;2.22;;
23617;SDS011;18207;32.078;34.818;2022-11-13T07:03:26;2.25;;;2.05;;
23617;SDS011;18207;32.078;34.818;2022-11-13T07:05:59;2.00;;;1.90;;
23617;SDS011;18207;32.078;34.818;2022-11-13T07:08:34;2.10;;;2.00;;
23617;SDS011;18207;32.078;34.818;2022-11-13T07:11:05;2.10;;;2.00;;
23617;SDS011;18207;32.078;34.818;2022-11-13T07:13:40;2.20;;;2.10;;
23617;SDS011;18207;32.078;34.818;2022-11-13T07:16:11;2.45;;;2.25;;
23617;SDS011;18207;32.078;34.818;2022-11-13T07:18:47;2.60;;;2.25;;
23617;SDS011;18207;32.078;34.818;2022-11-13T07:21:19;2.42;;;2.22;;
23617;SDS011;18207;32.078;34.818;2022-11-13T07:23:51;2.28;;;2.08;;
23617;SDS011;18207;32.078;34.818;2022-11-13T07:26:21;2.40;;;2.20;;
23617;SDS011;18207;32.078;34.818;2022-11-13T07:28:54;2.00;;;1.90;;
23617;SDS011;18207;32.078;34.818;2022-11-13T07:31:25;2.17;;;1.98;;
23617;SDS011;18207;32.078;34.818;2022-11-13T07:33:55;2.10;;;1.88;;
23617;SDS011;18207;32.078;34.818;2022-11-13T07:36:26;2.38;;;2.20;;
23617;SDS011;18207;32.078;34.818;2022-11-13T07:38:56;2.25;;;2.05;;
23617;SDS011;18207;32.078;34.818;2022-11-13T07:41:26;2.55;;;2.35;;
23617;SDS011;18207;32.078;34.818;2022-11-13T07:43:58;2.30;;;2.10;;
23617;SDS011;18207;32.078;34.818;2022-11-13T07:46:34;2.40;;;2.20;;
23617;SDS011;18207;32.078;34.818;2022-11-13T07:49:04;2.72;;;2.30;;
23617;SDS011;18207;32.078;34.818;2022-11-13T07:51:34;2.00;;;1.90;;
23617;SDS011;18207;32.078;34.818;2022-11-13T07:54:04;2.05;;;1.92;;
23617;SDS011;18207;32.078;34.818;2022-11-13T07:56:35;3.00;;;2.03;;
23617;SDS011;18207;32.078;34.818;2022-11-13T07:59:07;2.70;;;2.10;;
23617;SDS011;18207;32.078;34.818;2022-11-13T08:01:37;2.03;;;1.85;;
23617;SDS011;18207;32.078;34.818;2022-11-13T08:04:07;2.50;;;2.17;;
23617;SDS011;18207;32.078;34.818;2022-11-13T08:06:38;2.13;;;2.03;;
23617;SDS011;18207;32.078;34.818;2022-11-13T08:09:08;2.20;;;2.03;;
23617;SDS011;18207;32.078;34.818;2022-11-13T08:11:39;2.20;;;2.10;;
23617;SDS011;18207;32.078;34.818;2022-11-13T08:14:12;2.20;;;2.00;;
23617;SDS011;18207;32.078;34.818;2022-11-13T08:16:42;2.20;;;1.92;;
23617;SDS011;18207;32.078;34.818;2022-11-13T08:19:12;2.40;;;2.03;;
23617;SDS011;18207;32.078;34.818;2022-11-13T08:21:43;2.97;;;2.28;;
23617;SDS011;18207;32.078;34.818;2022-11-13T08:24:13;2.28;;;2.10;;
23617;SDS011;18207;32.078;34.818;2022-11-13T08:26:44;2.40;;;2.17;;
23617;SDS011;18207;32.078;34.818;2022-11-13T08:29:17;2.17;;;2.08;;
23617;SDS011;18207;32.078;34.818;2022-11-13T08:31:47;2.42;;;2.22;;
23617;SDS011;18207;32.078;34.818;2022-11-13T08:34:17;2.00;;;1.90;;
23617;SDS011;18207;32.078;34.818;2022-11-13T08:36:48;2.40;;;2.20;;
23617;SDS011;18207;32.078;34.818;2022-11-13T08:39:18;2.38;;;2.17;;
23617;SDS011;18207;32.078;34.818;2022-11-13T08:41:49;2.25;;;2.15;;
23617;SDS011;18207;32.078;34.818;2022-11-13T08:44:22;2.33;;;2.10;;
23617;SDS011;18207;32.078;34.818;2022-11-13T08:46:53;2.42;;;2.22;;
23617;SDS011;18207;32.078;34.818;2022-11-13T08:49:22;2.70;;;2.10;;
23617;SDS011;18207;32.078;34.818;2022-11-13T08:51:53;2.55;;;2.10;;
23617;SDS011;18207;32.078;34.818;2022-11-13T08:54:23;2.25;;;2.13;;
23617;SDS011;18207;32.078;34.818;2022-11-13T08:56:54;2.50;;;2.30;;
23617;SDS011;18207;32.078;34.818;2022-11-13T08:59:33;2.92;;;2.10;;
23617;SDS011;18207;32.078;34.818;2022-11-13T09:02:03;2.28;;;2.10;;
23617;SDS011;18207;32.078;34.818;2022-11-13T09:04:37;2.95;;;2.30;;
23617;SDS011;18207;32.078;34.818;2022-11-13T09:07:07;3.13;;;2.20;;
23617;SDS011;18207;32.078;34.818;2022-11-13T09:09:38;2.38;;;2.17;;
23617;SDS011;18207;32.078;34.818;2022-11-13T09:12:10;2.25;;;2.05;;
23617;SDS011;18207;32.078;34.818;2022-11-13T09:14:44;2.58;;;2.38;;
23617;SDS011;18207;32.078;34.818;2022-11-13T09:17:13;2.40;;;2.20;;
23617;SDS011;18207;32.078;34.818;2022-11-13T09:19:44;2.38;;;2.25;;
23617;SDS011;18207;32.078;34.818;2022-11-13T09:22:15;2.63;;;2.40;;
23617;SDS011;18207;32.078;34.818;2022-11-13T09:24:45;2.50;;;2.30;;
23617;SDS011;18207;32.078;34.818;2022-11-13T09:27:16;2.58;;;2.38;;
23617;SDS011;18207;32.078;34.818;2022-11-13T09:29:48;2.83;;;2.53;;
23617;SDS011;18207;32.078;34.818;2022-11-13T09:32:21;2.58;;;2.25;;
23617;SDS011;18207;32.078;34.818;2022-11-13T09:34:52;2.40;;;2.20;;
23617;SDS011;18207;32.078;34.818;2022-11-13T09:37:22;4.55;;;2.30;;
23617;SDS011;18207;32.078;34.818;2022-11-13T09:39:52;2.50;;;2.30;;
23617;SDS011;18207;32.078;34.818;2022-11-13T09:42:22;2.55;;;2.35;;
23617;SDS011;18207;32.078;34.818;2022-11-13T09:45:12;2.30;;;2.10;;
23617;SDS011;18207;32.078;34.818;2022-11-13T09:47:44;2.30;;;2.10;;
23617;SDS011;18207;32.078;34.818;2022-11-13T09:50:18;2.22;;;2.05;;
23617;SDS011;18207;32.078;34.818;2022-11-13T09:52:54;2.65;;;2.30;;
23617;SDS011;18207;32.078;34.818;2022-11-13T09:55:27;2.35;;;2.15;;
23617;SDS011;18207;32.078;34.818;2022-11-13T09:58:10;2.20;;;2.00;;
23617;SDS011;18207;32.078;34.818;2022-11-13T10:00:51;2.40;;;2.20;;
23617;SDS011;18207;32.078;34.818;2022-11-13T10:03:25;2.08;;;1.98;;
23617;SDS011;18207;32.078;34.818;2022-11-13T10:06:31;2.40;;;2.20;;
23617;SDS011;18207;32.078;34.818;2022-11-13T10:09:18;2.22;;;2.10;;
23617;SDS011;18207;32.078;34.818;2022-11-13T10:12:03;2.40;;;2.20;;
23617;SDS011;18207;32.078;34.818;2022-11-13T10:14:39;2.40;;;2.10;;
23617;SDS011;18207;32.078;34.818;2022-11-13T10:17:17;2.42;;;2.25;;
23617;SDS011;18207;32.078;34.818;2022-11-13T10:19:55;2.08;;;1.98;;
23617;SDS011;18207;32.078;34.818;2022-11-13T10:22:33;2.47;;;2.28;;
23617;SDS011;18207;32.078;34.818;2022-11-13T10:25:10;2.50;;;2.13;;
23617;SDS011;18207;32.078;34.818;2022-11-13T10:27:48;2.45;;;2.05;;
23617;SDS011;18207;32.078;34.818;2022-11-13T10:30:24;2.42;;;2.22;;
23617;SDS011;18207;32.078;34.818;2022-11-13T10:33:02;2.33;;;2.17;;
23617;SDS011;18207;32.078;34.818;2022-11-13T10:35:42;2.40;;;2.20;;
23617;SDS011;18207;32.078;34.818;2022-11-13T10:38:23;2.40;;;2.20;;
23617;SDS011;18207;32.078;34.818;2022-11-13T10:41:06;2.58;;;2.30;;
23617;SDS011;18207;32.078;34.818;2022-11-13T10:43:56;2.85;;;2.40;;
23617;SDS011;18207;32.078;34.818;2022-11-13T10:46:28;2.67;;;2.47;;
23617;SDS011;18207;32.078;34.818;2022-11-13T10:49:11;2.25;;;2.15;;
23617;SDS011;18207;32.078;34.818;2022-11-13T10:51:53;2.47;;;2.30;;
23617;SDS011;18207;32.078;34.818;2022-11-13T10:54:36;3.10;;;2.33;;
23617;SDS011;18207;32.078;34.818;2022-11-13T11:00:17;3.05;;;2.50;;
23617;SDS011;18207;32.078;34.818;2022-11-13T11:02:50;2.30;;;2.10;;
23617;SDS011;18207;32.078;34.818;2022-11-13T11:05:25;2.72;;;2.40;;
23617;SDS011;18207;32.078;34.818;2022-11-13T11:07:57;2.42;;;2.25;;
23617;SDS011;18207;32.078;34.818;2022-11-13T11:10:29;3.25;;;2.42;;
23617;SDS011;18207;32.078;34.818;2022-11-13T11:13:23;2.47;;;2.28;;
23617;SDS011;18207;32.078;34.818;2022-11-13T11:15:55;2.58;;;2.38;;
23617;SDS011;18207;32.078;34.818;2022-11-13T11:18:33;2.55;;;2.35;;
23617;SDS011;18207;32.078;34.818;2022-11-13T11:21:11;2.80;;;2.60;;
23617;SDS011;18207;32.078;34.818;2022-11-13T11:23:51;3.00;;;2.70;;
23617;SDS011;18207;32.078;34.818;2022-11-13T11:26:31;2.97;;;2.50;;
23617;SDS011;18207;32.078;34.818;2022-11-13T11:29:13;2.58;;;2.38;;
23617;SDS011;18207;32.078;34.818;2022-11-13T11:31:53;2.50;;;2.25;;
23617;SDS011;18207;32.078;34.818;2022-11-13T11:34:30;2.38;;;2.22;;
23617;SDS011;18207;32.078;34.818;2022-11-13T11:37:13;2.75;;;2.45;;
23617;SDS011;18207;32.078;34.818;2022-11-13T11:39:48;2.58;;;2.38;;
23617;SDS011;18207;32.078;34.818;2022-11-13T11:42:26;2.72;;;2.53;;
23617;SDS011;18207;32.078;34.818;2022-11-13T11:45:04;2.97;;;2.40;;
23617;SDS011;18207;32.078;34.818;2022-11-13T11:47:56;2.75;;;2.55;;
23617;SDS011;18207;32.078;34.818;2022-11-13T11:50:33;2.85;;;2.60;;
23617;SDS011;18207;32.078;34.818;2022-11-13T11:53:15;2.65;;;2.45;;
23617;SDS011;18207;32.078;34.818;2022-11-13T11:56:17;2.70;;;2.50;;
23617;SDS011;18207;32.078;34.818;2022-11-13T11:59:00;2.53;;;2.33;;
23617;SDS011;18207;32.078;34.818;2022-11-13T12:02:02;3.20;;;2.55;;
23617;SDS011;18207;32.078;34.818;2022-11-13T12:05:15;2.47;;;2.28;;
23617;SDS011;18207;32.078;34.818;2022-11-13T12:07:56;2.65;;;2.45;;
23617;SDS011;18207;32.078;34.818;2022-11-13T12:10:45;2.90;;;2.60;;
23617;SDS011;18207;32.078;34.818;2022-11-13T12:13:26;2.67;;;2.47;;
23617;SDS011;18207;32.078;34.818;2022-11-13T12:16:03;2.60;;;2.40;;
23617;SDS011;18207;32.078;34.818;2022-11-13T12:18:52;3.00;;;2.70;;
23617;SDS011;18207;32.078;34.818;2022-11-13T12:21:33;2.65;;;2.45;;
23617;SDS011;18207;32.078;34.818;2022-11-13T12:24:22;2.60;;;2.40;;
23617;SDS011;18207;32.078;34.818;2022-11-13T12:27:18;2.80;;;2.60;;
23617;SDS011;18207;32.078;34.818;2022-11-13T12:30:02;3.33;;;3.03;;
23617;SDS011;18207;32.078;34.818;2022-11-13T12:32:45;4.88;;;3.33;;
23617;SDS011;18207;32.078;34.818;2022-11-13T12:35:39;3.25;;;2.95;;
23617;SDS011;18207;32.078;34.818;2022-11-13T12:38:17;3.05;;;2.85;;
23617;SDS011;18207;32.078;34.818;2022-11-13T12:41:10;2.83;;;2.63;;
23617;SDS011;18207;32.078;34.818;2022-11-13T12:47:07;2.47;;;2.22;;
23617;SDS011;18207;32.078;34.818;2022-11-13T12:49:39;3.95;;;2.42;;
23617;SDS011;18207;32.078;34.818;2022-11-13T12:52:16;2.60;;;2.40;;
23617;SDS011;18207;32.078;34.818;2022-11-13T12:54:50;2.65;;;2.30;;
23617;SDS011;18207;32.078;34.818;2022-11-13T12:57:32;3.28;;;2.28;;
23617;SDS011;18207;32.078;34.818;2022-11-13T13:00:20;2.75;;;2.30;;
23617;SDS011;18207;32.078;34.818;2022-11-13T13:03:07;2.22;;;2.13;;
23617;SDS011;18207;32.078;34.818;2022-11-13T13:05:58;2.50;;;2.30;;
23617;SDS011;18207;32.078;34.818;2022-11-13T13:08:55;2.45;;;2.25;;
23617;SDS011;18207;32.078;34.818;2022-11-13T13:11:55;2.47;;;2.30;;
23617;SDS011;18207;32.078;34.818;2022-11-13T13:14:42;2.75;;;2.40;;
23617;SDS011;18207;32.078;34.818;2022-11-13T13:17:36;2.50;;;2.30;;
23617;SDS011;18207;32.078;34.818;2022-11-13T13:23:03;2.70;;;2.50;;
23617;SDS011;18207;32.078;34.818;2022-11-13T13:25:38;2.63;;;2.42;;
23617;SDS011;18207;32.078;34.818;2022-11-13T13:28:15;2.83;;;2.58;;
23617;SDS011;18207;32.078;34.818;2022-11-13T13:30:50;2.45;;;2.22;;
23617;SDS011;18207;32.078;34.818;2022-11-13T13:33:46;2.55;;;2.35;;
23617;SDS011;18207;32.078;34.818;2022-11-13T13:36:34;3.45;;;2.30;;
23617;SDS011;18207;32.078;34.818;2022-11-13T13:39:35;3.53;;;2.60;;
23617;SDS011;18207;32.078;34.818;2022-11-13T13:42:38;2.15;;;2.03;;
23617;SDS011;18207;32.078;34.818;2022-11-13T13:45:26;2.45;;;2.25;;
23617;SDS011;18207;32.078;34.818;2022-11-13T13:48:09;3.83;;;2.15;;
23617;SDS011;18207;32.078;34.818;2022-11-13T13:50:45;2.35;;;2.10;;
23617;SDS011;18207;32.078;34.818;2022-11-13T13:53:20;2.95;;;2.50;;
23617;SDS011;18207;32.078;34.818;2022-11-13T13:55:55;2.53;;;2.25;;
23617;SDS011;18207;32.078;34.818;2022-11-13T13:58:28;2.40;;;2.20;;
23617;SDS011;18207;32.078;34.818;2022-11-13T14:01:03;2.53;;;2.33;;
23617;SDS011;18207;32.078;34.818;2022-11-13T14:03:45;2.42;;;2.05;;
23617;SDS011;18207;32.078;34.818;2022-11-13T14:06:20;2.65;;;2.17;;
23617;SDS011;18207;32.078;34.818;2022-11-13T14:08:52;2.40;;;2.20;;
23617;SDS011;18207;32.078;34.818;2022-11-13T14:11:22;2.22;;;2.08;;
23617;SDS011;18207;32.078;34.818;2022-11-13T14:14:05;2.35;;;2.15;;
23617;SDS011;18207;32.078;34.818;2022-11-13T14:16:47;2.42;;;2.20;;
23617;SDS011;18207;32.078;34.818;2022-11-13T14:19:19;2.35;;;2.15;;
23617;SDS011;18207;32.078;34.818;2022-11-13T14:21:58;2.45;;;2.25;;
23617;SDS011;18207;32.078;34.818;2022-11-13T14:24:34;2.40;;;2.20;;
23617;SDS011;18207;32.078;34.818;2022-11-13T14:27:16;2.33;;;2.13;;
23617;SDS011;18207;32.078;34.818;2022-11-13T14:29:52;2.50;;;2.10;;
23617;SDS011;18207;32.078;34.818;2022-11-13T14:32:27;3.38;;;2.33;;
23617;SDS011;18207;32.078;34.818;2022-11-13T14:35:01;2.55;;;2.10;;
23617;SDS011;18207;32.078;34.818;2022-11-13T14:37:38;2.33;;;2.13;;
23617;SDS011;18207;32.078;34.818;2022-11-13T14:40:18;4.53;;;2.47;;
23617;SDS011;18207;32.078;34.818;2022-11-13T14:42:52;2.90;;;2.28;;
23617;SDS011;18207;32.078;34.818;2022-11-13T14:45:27;2.75;;;2.55;;
23617;SDS011;18207;32.078;34.818;2022-11-13T14:48:00;2.55;;;2.35;;
23617;SDS011;18207;32.078;34.818;2022-11-13T14:50:47;2.42;;;2.28;;
23617;SDS011;18207;32.078;34.818;2022-11-13T14:53:26;2.58;;;2.38;;
23617;SDS011;18207;32.078;34.818;2022-11-13T14:56:01;2.40;;;2.20;;
23617;SDS011;18207;32.078;34.818;2022-11-13T14:58:36;2.67;;;2.47;;
23617;SDS011;18207;32.078;34.818;2022-11-13T15:01:13;2.80;;;2.60;;
23617;SDS011;18207;32.078;34.818;2022-11-13T15:03:47;2.60;;;2.40;;
23617;SDS011;18207;32.078;34.818;2022-11-13T15:06:19;2.85;;;2.55;;
23617;SDS011;18207;32.078;34.818;2022-11-13T15:08:53;2.60;;;2.40;;
23617;SDS011;18207;32.078;34.818;2022-11-13T15:11:26;2.75;;;2.25;;
23617;SDS011;18207;32.078;34.818;2022-11-13T15:13:57;2.50;;;2.30;;
23617;SDS011;18207;32.078;34.818;2022-11-13T15:16:30;3.15;;;2.55;;
23617;SDS011;18207;32.078;34.818;2022-11-13T15:19:02;2.40;;;2.20;;
23617;SDS011;18207;32.078;34.818;2022-11-13T15:21:39;2.90;;;2.58;;
23617;SDS011;18207;32.078;34.818;2022-11-13T15:24:33;2.53;;;2.33;;
23617;SDS011;18207;32.078;34.818;2022-11-13T15:27:04;2.70;;;2.50;;